Logo AVAMET
Benvolgut visitant, si us plau, ingressa Recuperar contrasenya

Ontinyent Alba

Dades diàries. Acumulats / Últims 30 dies disponibles

Data Temperatura (°C) Humitat rel. (%) Pressió rel. (hPa) Vent (km/h) Precipitació
Mínima Mitjana Màxima Amplitud
tèrmica
Mínima Mitjana Màxima Mínima Mitjana Màxima Predom. Mitjana Ràfega
màxima
Total
(mm)
Índex-n
Mínima Mitjana Màxima Mínima Mitjana Màxima n
0 a 1
P0 max
mm 5'
Dades mensuals acumulades fins l'últim dia disponible
11/2019 1,8 8,5 18,4 12,4 12,7 17,1 25,2 23,4 37 63 92 1.001 1.011 1.021   4,0 46,7 7,8
Dades anuals acumulades fins l'últim dia disponible
2019 -1,7 12,0 24,1 17,7 10,1 24,5 41,0 42,7 7 63 98 994 1.016 1.035   2,6 48,3 902,8
Últims 30 dies disponibles
21-11-2019 6,8     10,5     15,1 8,3 63 78 92 1.008 1.010 1.011 SW 2,1 20,9 0,2
20-11-2019 3,9     9,4     14,8 10,9 44 69 90 1.010 1.012 1.016 SW 1,6 19,3 0,4
19-11-2019 1,8     7,3     14,2 12,4 44 67 83 1.015 1.017 1.019 WSW 1,3 22,5 0,0
18-11-2019 4,1     9,0     13,6 9,5 53 74 92 1.008 1.012 1.017 WSW 0,6 12,9 2,2 0,26 0,40
17-11-2019 4,3     9,6     14,2 9,9 47 63 90 1.011 1.014 1.017 WSW 4,3 32,2 2,4 0,40
16-11-2019 2,6     8,2     14,2 11,6 42 62 82 1.008 1.012 1.017 WSW 1,9 20,9 0,0
15-11-2019 6,3     9,0     12,7 6,4 47 63 74 1.001 1.004 1.008 WSW 4,3 37,0 0,0
14-11-2019 9,9     10,0     15,9 6,0 63 63 64 1.001 1.001 1.002 OSO 5,6 35,4 0,0
13-11-2019 12,3     14,1     18,6 6,3 58 66 72 1.005 1.007 1.011 SO 7,1 32,2 0,0
12-11-2019 4,6     11,1     17,5 12,9 37 57 77 1.010 1.012 1.014 WSW 2,4 25,7 0,0
11-11-2019 4,6     10,2     15,5 10,9 44 61 75 1.012 1.014 1.016 WSW 1,6 17,7 0,0
10-11-2019 6,9     10,6     14,3 7,4 44 65 88 1.012 1.013 1.015 W 3,4 30,6 1,6
09-11-2019 7,9     11,7     15,6 7,7 41 56 78 1.014 1.018 1.021 WSW 5,6 30,6 1,0
08-11-2019 6,9     10,6     14,5 7,6 45 56 73 1.010 1.014 1.019 WSW 4,0 27,4 0,0
07-11-2019 8,3     13,6     18,1 9,8 41 62 73 1.008 1.011 1.014 WSW 4,2 30,6 0,0
06-11-2019 9,2     13,5     18,9 9,7 40 59 76 1.012 1.014 1.015 WSW 3,4 22,5 0,0
05-11-2019 11,8     14,6     17,9 6,1 46 61 74 1.005 1.009 1.013 WSW 5,6 35,4 0,0
04-11-2019 15,9     18,5     22,2 6,3 48 60 71 1.006 1.010 1.012 WSW 7,9 37,0 0,0
03-11-2019 16,4     18,6     21,7 5,3 54 60 69 1.002 1.005 1.012 WSW 8,2 46,7 0,0
02-11-2019 18,4     20,3     24,1 5,7 48 63 73 1.004 1.009 1.014 WSW 5,8 30,6 0,0
01-11-2019 16,6     20,6     25,2 8,6 54 69 79 1.014 1.017 1.021 WSW 3,2 24,1 0,0
31-10-2019 16,4     20,1     25,1 8,7 52 67 79 1.019 1.020 1.021 SO 2,4 24,1 0,0
30-10-2019 13,0     18,3     25,6 12,6 47 71 88 1.019 1.020 1.022 WSW 0,8 12,9 0,0
29-10-2019 13,0     18,6     26,0 13,0 48 71 88 1.015 1.017 1.019 WSW 0,8 12,9 0,0
28-10-2019 11,0     15,8     21,5 10,5 61 82 96 1.016 1.018 1.020 SW 0,6 14,5 0,4
27-10-2019 11,4     15,6     22,1 10,7 66 87 96 1.019 1.021 1.022 E 0,6 9,7 0,0
26-10-2019 11,2     15,9     22,5 11,3 57 77 94 1.019 1.021 1.022 SW 1,1 11,3 0,0
25-10-2019 9,9     16,2     23,5 13,6 40 66 84 1.020 1.022 1.023 WSW 0,8 8,0 0,0
24-10-2019 9,8     14,3     19,8 10,0 52 68 82 1.012 1.017 1.023 WSW 2,4 19,3 0,0
23-10-2019 10,2     12,4     17,4 7,2 53 73 87 1.006 1.008 1.012 SW 5,1 29,0 0,0
Últims 13 mesos disponibles
10/2019 7,3 13,3 16,9 18,3 13,4 24,7 32,2 24,9 46 70 92 1.008 1.016 1.022 WSW 1,6 29,0 66,4
09/2019 12,4 17,4 21,8 22,0 18,1 27,7 35,7 23,3 46 77 97 1.009 1.016 1.023 E 1,8 41,8 423,0
08/2019 16,1 19,5 24,0 26,1 27,3 34,0 41,0 24,9 31 64 82 1.009 1.014 1.019 E 2,2 37,0 25,4
07/2019 17,2 19,6 24,1 26,6 27,1 34,1 40,9 23,7 37 60 83 1.005 1.012 1.019 ENE 2,8 46,7 1,4
06/2019 9,4 15,0 20,3 22,5 21,4 30,3 38,0 28,6 33 57 79 1.008 1.014 1.020 ENE 2,6 37,0 1,4
05/2019 6,5 11,8 18,8 18,2 19,7 25,5 30,7 24,2 48 63 84 1.005 1.014 1.023 ENE 2,6 35,4 13,8
04/2019 5,8 9,5 12,9 13,9 10,9 19,3 27,8 22,0 38 69 97 999 1.013 1.024 SW 3,7 46,7 309,0
03/2019 2,7 6,8 14,1 13,3 10,9 20,3 28,5 25,8 29 54 93 1.010 1.022 1.030 SW 2,7 43,5 51,6
02/2019 -0,6 4,7 8,9 10,7 10,7 18,0 24,6 25,2 34 61 83 996 1.025 1.034 SW 2,5 48,3 1,4
01/2019 -1,7 4,0 10,4 9,0 10,1 15,6 19,9 21,6 44 59 79 1.003 1.020 1.032 S 2,6 48,3 1,6
12/2018 2,7 6,5 10,4 11,4 11,7 18,1 25,6 22,9 38 66 93 1.009 1.026 1.032 S 2,0 43,5 24,4
11/2018 3,7 8,7 13,6 12,4 11,4 17,0 23,9 20,2 36 71 96 1.006 1.018 1.023 S 2,5 41,8 100,8
10/2018 5,1 12,2 15,7 16,6 12,4 22,3 30,9 25,8 48 73 93 1.000 1.014 1.025 S 1,8 49,9 41,4
Tots els anys disponibles
2018 -1,5 11,6 22,9 16,7 5,4 22,8 39,9 41,4 34 65 96 994 1.015 1.032 S 2,8 54,7 527,5
2017 -0,7 5,0 13,6 9,1 8,5 14,4 18,5 19,2 45 64 82 1.001 1.023 1.034 SSO 3,8 56,6
Temperatura (°C)
Humitat relativa (%)
Velocitat del vent i ràfega màxima (km/h)
Direcció del vent (°)
Pressió (hPa)
Precipitació (mm)
Nota sobre les dades: s'avisa a l'usuari de la provisionalitat i no oficialitat d'aquestes dades
Logo AVAMET blanc
Web allotjada a Sollutia
Llicència de Creative CommonsLa web d'AVAMET i els seus continguts estan subjectes a una llicència de
Reconeixement - No Comercial - Compartir igual
Últimes estacions: Faura (Inforatge), Benifairó de les Valls (Inforatge), Xàbia - Les Valls (Soci), Xàbia - Alt de la Granadella (Soci), Villena - Sierra de Salinas (Soci), Sueca - Centre (Inforatge) - - -